Time;durP1;ratioP1;P1;durP2;ratioP2;P2;SDS_P1;SDS_P2;PMS_P1;PMS_P2;Temp;Humidity;BMP_temperature;BMP_pressure;BME280_temperature;BME280_humidity;BME280_pressure;Samples;Min_cycle;Max_cycle;Signal;HPM_P1;HPM_P2
2021/10/07 00:01:57;;;;;;;0.00;0.00;;;15.70;56.20;;;;;;5073053;28;20040;-71
2021/10/07 00:04:23;;;;;;;0.00;0.00;;;15.70;56.60;;;;;;5072995;28;20031;-71
2021/10/07 00:06:48;;;;;;;0.00;0.00;;;15.70;56.60;;;;;;5071829;28;20033;-71
2021/10/07 00:09:15;;;;;;;0.35;0.10;;;15.70;56.80;;;;;;5073044;28;20388;-70
2021/10/07 00:11:42;;;;;;;0.17;0.00;;;15.70;56.80;;;;;;5073045;28;20048;-71
2021/10/07 00:14:08;;;;;;;0.35;0.00;;;15.70;57.00;;;;;;5073040;28;20016;-71
2021/10/07 00:16:34;;;;;;;0.00;0.00;;;15.70;57.50;;;;;;5073026;28;20055;-71
2021/10/07 00:18:59;;;;;;;0.68;0.00;;;15.70;58.40;;;;;;5072781;28;20035;-72
2021/10/07 00:21:25;;;;;;;0.00;0.00;;;15.70;58.60;;;;;;5072817;28;20100;-71
2021/10/07 00:24:09;;;;;;;0.00;0.00;;;15.70;58.80;;;;;;5072897;28;20438;-71
2021/10/07 00:26:37;;;;;;;0.00;0.00;;;15.80;56.10;;;;;;5072751;28;20020;-71
2021/10/07 00:30:08;;;;;;;2.80;0.00;;;15.70;57.30;;;;;;5072755;28;20055;-71
2021/10/07 00:32:09;;;;;;;0.00;0.00;;;15.70;56.60;;;;;;5063216;28;20041;-71
2021/10/07 00:35:15;;;;;;;0.52;0.00;;;15.80;57.30;;;;;;5071524;28;20051;-72
2021/10/07 00:40:07;;;;;;;0.22;0.00;;;15.70;59.30;;;;;;5072666;28;20032;-71
2021/10/07 00:42:33;;;;;;;0.30;0.00;;;15.80;58.90;;;;;;5072539;28;20090;-73
2021/10/07 00:44:59;;;;;;;0.00;0.00;;;15.70;60.60;;;;;;5072743;28;20476;-72
2021/10/07 00:47:24;;;;;;;0.00;0.00;;;15.70;61.10;;;;;;5073634;28;20029;-70
2021/10/07 00:49:50;;;;;;;0.25;0.10;;;15.60;61.20;;;;;;5076821;28;20031;-70
2021/10/07 00:52:19;;;;;;;0.20;0.00;;;15.60;62.60;;;;;;5076816;28;20059;-72
2021/10/07 00:54:49;;;;;;;0.00;0.00;;;15.50;63.30;;;;;;5076770;28;20074;-70
2021/10/07 00:57:19;;;;;;;0.10;0.00;;;15.40;64.60;;;;;;5076549;28;20048;-73
2021/10/07 00:59:49;;;;;;;0.10;0.00;;;15.40;64.90;;;;;;5073441;28;20024;-72
2021/10/07 01:02:16;;;;;;;0.00;0.00;;;15.40;64.00;;;;;;5074081;28;20035;-74
2021/10/07 01:04:43;;;;;;;1.95;0.17;;;15.40;64.20;;;;;;5074734;28;20338;-74
2021/10/07 01:07:10;;;;;;;1.77;0.00;;;15.30;63.10;;;;;;5076134;28;20056;-71
2021/10/07 01:09:38;;;;;;;0.00;0.00;;;15.40;60.60;;;;;;5076007;28;20039;-74
2021/10/07 01:12:05;;;;;;;0.00;0.00;;;15.40;60.60;;;;;;5076319;28;20024;-71
2021/10/07 01:14:33;;;;;;;2.25;0.00;;;15.40;60.60;;;;;;5076177;28;20035;-72
2021/10/07 01:17:00;;;;;;;0.55;0.00;;;15.40;61.30;;;;;;5076288;28;20119;-72
2021/10/07 01:19:27;;;;;;;0.00;0.00;;;15.40;61.60;;;;;;5075994;28;20025;-73
2021/10/07 01:21:53;;;;;;;0.25;0.00;;;15.40;59.60;;;;;;5075638;28;20020;-72
2021/10/07 01:24:19;;;;;;;0.47;0.03;;;15.50;59.30;;;;;;5076214;28;20021;-71
2021/10/07 01:26:45;;;;;;;5.65;0.13;;;15.50;59.40;;;;;;5076143;28;20031;-71
2021/10/07 01:29:10;;;;;;;0.00;0.00;;;15.50;58.60;;;;;;5075723;28;20094;-71
2021/10/07 01:31:36;;;;;;;0.00;0.00;;;15.50;58.50;;;;;;5075813;28;20497;-71
2021/10/07 01:34:02;;;;;;;0.00;0.00;;;15.50;56.40;;;;;;5075782;28;20103;-74
2021/10/07 01:36:27;;;;;;;1.85;0.13;;;15.50;57.10;;;;;;5075683;28;20036;-74
2021/10/07 01:38:53;;;;;;;0.32;0.00;;;15.50;57.40;;;;;;5075803;28;20029;-70
2021/10/07 01:41:19;;;;;;;0.00;0.00;;;15.60;57.10;;;;;;5075755;28;20545;-71
2021/10/07 01:43:44;;;;;;;0.00;0.00;;;15.60;56.90;;;;;;5075292;28;20404;-70
2021/10/07 01:46:10;;;;;;;0.00;0.00;;;15.60;56.50;;;;;;5075728;28;20443;-70
2021/10/07 01:48:36;;;;;;;1.08;0.03;;;15.60;56.20;;;;;;5075350;28;20101;-71
2021/10/07 01:51:02;;;;;;;0.00;0.00;;;15.60;55.70;;;;;;5075436;28;20085;-72
2021/10/07 01:53:28;;;;;;;0.00;0.00;;;15.60;54.70;;;;;;5075678;28;20029;-70
2021/10/07 01:55:53;;;;;;;0.00;0.00;;;15.70;56.00;;;;;;5074339;28;20035;-73
2021/10/07 01:58:19;;;;;;;0.00;0.00;;;15.70;55.60;;;;;;5074567;28;20032;-72
2021/10/07 02:00:45;;;;;;;1.95;0.03;;;15.70;54.10;;;;;;5074659;28;20074;-74
2021/10/07 02:03:11;;;;;;;2.10;0.10;;;15.70;55.00;;;;;;5075266;28;20067;-70
2021/10/07 02:05:36;;;;;;;1.00;0.00;;;15.70;55.30;;;;;;5075444;28;20564;-71
2021/10/07 02:08:02;;;;;;;3.50;0.10;;;15.70;56.70;;;;;;5075049;28;20139;-69
2021/10/07 02:10:28;;;;;;;0.65;0.10;;;15.70;57.90;;;;;;5074955;28;20107;-70
2021/10/07 02:12:53;;;;;;;0.10;0.03;;;15.70;59.70;;;;;;5075215;28;20021;-71
2021/10/07 02:15:19;;;;;;;1.00;0.25;;;15.60;62.00;;;;;;5075452;28;20033;-72
2021/10/07 02:17:45;;;;;;;1.45;0.10;;;15.50;66.50;;;;;;5075044;28;20029;-71
2021/10/07 02:20:11;;;;;;;0.10;0.08;;;15.50;65.20;;;;;;5073754;28;20048;-70
2021/10/07 02:22:38;;;;;;;0.15;0.00;;;15.40;66.00;;;;;;5075105;28;20036;-73
2021/10/07 02:25:05;;;;;;;3.95;0.28;;;15.30;65.50;;;;;;5074733;28;20443;-71
2021/10/07 02:27:30;;;;;;;1.45;0.20;;;15.30;67.30;;;;;;5074695;28;20090;-75
2021/10/07 02:29:56;;;;;;;1.63;0.25;;;15.20;67.50;;;;;;5075136;28;20052;-71
2021/10/07 02:32:22;;;;;;;0.50;0.13;;;15.10;68.40;;;;;;5074799;28;20040;-70
2021/10/07 02:34:48;;;;;;;1.13;0.20;;;15.00;68.70;;;;;;5074528;28;20047;-71
2021/10/07 02:37:13;;;;;;;3.03;0.10;;;15.00;70.90;;;;;;5072100;28;20033;-71
2021/10/07 02:39:39;;;;;;;3.03;0.10;;;14.90;71.30;;;;;;5071874;28;20750;-72
2021/10/07 02:42:07;;;;;;;0.20;0.00;;;14.90;71.10;;;;;;5073042;28;20029;-70
2021/10/07 02:44:33;;;;;;;0.20;0.00;;;14.80;68.80;;;;;;5074458;28;20021;-71
2021/10/07 02:46:59;;;;;;;0.68;0.10;;;14.80;69.00;;;;;;5074416;28;20028;-70
2021/10/07 02:49:25;;;;;;;0.00;0.00;;;14.80;71.50;;;;;;5074433;28;20032;-71
2021/10/07 02:51:50;;;;;;;0.32;0.00;;;14.80;71.10;;;;;;5074535;28;20024;-70
2021/10/07 02:54:16;;;;;;;2.83;0.10;;;14.80;71.60;;;;;;5073878;28;20120;-70
2021/10/07 02:56:42;;;;;;;0.32;0.00;;;14.80;66.50;;;;;;5074325;28;20028;-76
2021/10/07 02:59:07;;;;;;;0.22;0.10;;;14.80;66.00;;;;;;5074347;28;20096;-71
2021/10/07 03:01:33;;;;;;;2.85;0.03;;;14.80;67.80;;;;;;5074591;28;20380;-71
2021/10/07 03:03:59;;;;;;;0.00;0.00;;;14.90;66.00;;;;;;5074378;28;20028;-72
2021/10/07 03:06:24;;;;;;;1.95;0.38;;;14.80;65.70;;;;;;5074188;28;20033;-71
2021/10/07 03:08:50;;;;;;;0.00;0.00;;;14.80;66.30;;;;;;5073811;28;20036;-71
2021/10/07 03:11:16;;;;;;;0.25;0.00;;;14.90;64.70;;;;;;5073950;28;20496;-71
2021/10/07 03:13:42;;;;;;;0.10;0.00;;;14.90;65.20;;;;;;5074460;28;20055;-73
2021/10/07 03:16:08;;;;;;;0.00;0.00;;;14.90;65.90;;;;;;5074087;28;20032;-73
2021/10/07 03:18:33;;;;;;;0.10;0.00;;;14.90;64.90;;;;;;5073868;28;20032;-71
2021/10/07 03:20:59;;;;;;;0.00;0.00;;;14.90;63.00;;;;;;5073859;28;20551;-70
2021/10/07 03:23:25;;;;;;;0.17;0.00;;;14.90;61.40;;;;;;5074193;28;20389;-71
2021/10/07 03:25:51;;;;;;;0.20;0.00;;;14.90;62.70;;;;;;5073841;28;20025;-71
2021/10/07 03:28:16;;;;;;;0.65;0.00;;;15.00;60.10;;;;;;5073858;28;20255;-72
2021/10/07 03:30:42;;;;;;;3.10;1.20;;;15.00;60.10;;;;;;5073473;28;20048;-71
2021/10/07 03:33:10;;;;;;;0.00;0.00;;;15.10;58.60;;;;;;5073660;28;20024;-72
2021/10/07 03:35:37;;;;;;;0.80;0.10;;;15.10;57.90;;;;;;5073690;28;20028;-71
2021/10/07 03:38:04;;;;;;;0.10;0.00;;;15.20;58.00;;;;;;5073388;28;20044;-70
2021/10/07 03:40:30;;;;;;;2.30;0.00;;;15.30;56.90;;;;;;5073282;28;20028;-71
2021/10/07 03:42:56;;;;;;;0.25;0.00;;;15.30;57.50;;;;;;5073543;28;20031;-72
2021/10/07 03:45:22;;;;;;;0.00;0.00;;;15.30;56.80;;;;;;5072189;28;20420;-70
2021/10/07 03:47:48;;;;;;;2.30;0.00;;;15.40;56.80;;;;;;5073168;28;20037;-70
2021/10/07 03:50:14;;;;;;;4.22;0.10;;;15.30;57.30;;;;;;5073345;28;20476;-73
2021/10/07 03:52:40;;;;;;;2.13;0.10;;;15.30;58.20;;;;;;5073356;28;20380;-71
2021/10/07 03:55:06;;;;;;;0.00;0.00;;;15.30;56.60;;;;;;5073322;28;20029;-70
2021/10/07 03:57:32;;;;;;;0.00;0.00;;;15.40;57.10;;;;;;5073441;28;20086;-74
2021/10/07 03:59:57;;;;;;;0.00;0.00;;;15.40;57.70;;;;;;5073200;28;20024;-71
2021/10/07 04:02:23;;;;;;;0.25;0.00;;;15.40;57.00;;;;;;5073410;28;20492;-70
2021/10/07 04:04:49;;;;;;;0.52;0.10;;;15.40;56.10;;;;;;5073117;28;20028;-72
2021/10/07 04:07:14;;;;;;;0.00;0.00;;;15.40;56.00;;;;;;5073066;28;20091;-71
2021/10/07 04:09:40;;;;;;;0.10;0.00;;;15.50;55.60;;;;;;5073058;28;20039;-72
2021/10/07 04:12:07;;;;;;;0.00;0.00;;;15.50;54.50;;;;;;5073240;28;20017;-73
2021/10/07 04:14:33;;;;;;;1.10;0.10;;;15.60;54.50;;;;;;5073072;28;20024;-72
2021/10/07 04:16:58;;;;;;;0.00;0.00;;;15.60;53.40;;;;;;5072668;28;20029;-70
2021/10/07 04:19:24;;;;;;;0.95;0.10;;;15.60;53.40;;;;;;5072596;28;20402;-73
2021/10/07 04:21:50;;;;;;;0.35;0.00;;;15.60;54.70;;;;;;5072021;28;20078;-71
2021/10/07 04:24:16;;;;;;;0.20;0.00;;;15.60;53.40;;;;;;5073029;28;20457;-70
2021/10/07 04:26:42;;;;;;;2.50;0.10;;;15.70;53.30;;;;;;5072649;28;20021;-71
2021/10/07 04:29:07;;;;;;;0.30;0.00;;;15.70;52.90;;;;;;5072610;28;20059;-70
2021/10/07 04:31:33;;;;;;;0.80;0.03;;;15.70;52.00;;;;;;5072665;28;20079;-79
2021/10/07 04:33:59;;;;;;;1.20;0.10;;;15.70;52.10;;;;;;5072720;28;20025;-74
2021/10/07 04:36:24;;;;;;;1.83;0.10;;;15.70;52.60;;;;;;5072583;28;20025;-72
2021/10/07 04:38:50;;;;;;;2.83;0.10;;;15.80;51.80;;;;;;5072747;28;20012;-71
2021/10/07 04:41:16;;;;;;;0.10;0.00;;;15.80;52.10;;;;;;5072609;28;20546;-72
2021/10/07 04:43:42;;;;;;;0.30;0.00;;;15.80;51.50;;;;;;5072323;28;20028;-73
2021/10/07 04:46:08;;;;;;;2.47;0.00;;;15.80;51.20;;;;;;5072399;28;20020;-71
2021/10/07 04:48:34;;;;;;;2.53;0.20;;;15.90;52.10;;;;;;5072133;28;20481;-74
2021/10/07 04:51:00;;;;;;;0.70;0.00;;;15.90;51.60;;;;;;5072320;28;20054;-78
2021/10/07 04:53:26;;;;;;;1.85;0.00;;;15.90;51.70;;;;;;5072445;28;20056;-77
2021/10/07 04:55:55;;;;;;;2.38;0.10;;;15.90;51.30;;;;;;5072466;28;20100;-78
2021/10/07 04:58:24;;;;;;;1.00;0.25;;;15.90;51.80;;;;;;5072628;28;20035;-77
2021/10/07 05:00:50;;;;;;;0.00;0.00;;;15.90;51.40;;;;;;5072736;28;20041;-78
2021/10/07 05:03:16;;;;;;;2.45;0.05;;;15.80;51.50;;;;;;5072638;28;20517;-79
2021/10/07 05:05:42;;;;;;;5.00;0.10;;;15.90;51.30;;;;;;5072905;28;20346;-77
2021/10/07 05:08:09;;;;;;;0.85;0.10;;;15.90;51.60;;;;;;5072246;28;20153;-79
2021/10/07 05:10:35;;;;;;;0.10;0.00;;;15.90;52.20;;;;;;5072561;28;20096;-78
2021/10/07 05:13:01;;;;;;;0.00;0.00;;;15.90;51.10;;;;;;5072325;28;20393;-79
2021/10/07 05:15:26;;;;;;;0.63;0.10;;;15.90;51.40;;;;;;5072819;28;20016;-79
2021/10/07 05:17:53;;;;;;;0.00;0.00;;;16.00;51.30;;;;;;5072266;28;20039;-78
2021/10/07 05:20:19;;;;;;;2.25;0.05;;;16.00;52.10;;;;;;5072564;28;20064;-79
2021/10/07 05:22:44;;;;;;;0.10;0.00;;;16.00;51.30;;;;;;5072566;28;20433;-78
2021/10/07 05:25:11;;;;;;;0.80;0.08;;;15.90;51.30;;;;;;5072432;28;20107;-79
2021/10/07 05:27:37;;;;;;;0.22;0.05;;;15.90;51.10;;;;;;5072413;28;20029;-78
2021/10/07 05:30:04;;;;;;;7.20;0.10;;;15.90;51.70;;;;;;5072099;28;20353;-76
2021/10/07 05:32:30;;;;;;;0.98;0.10;;;15.90;50.90;;;;;;5072233;28;20043;-78
2021/10/07 05:34:56;;;;;;;1.55;0.00;;;15.90;51.50;;;;;;5075747;28;20111;-79
2021/10/07 05:37:22;;;;;;;2.80;0.10;;;15.90;52.00;;;;;;5075956;28;20103;-79
2021/10/07 05:39:49;;;;;;;0.00;0.00;;;15.90;52.40;;;;;;5075672;28;20456;-76
2021/10/07 05:42:14;;;;;;;0.32;0.00;;;15.90;52.60;;;;;;5075806;28;20423;-78
2021/10/07 05:44:40;;;;;;;2.67;0.03;;;15.90;51.90;;;;;;5075443;28;20028;-79
2021/10/07 05:47:06;;;;;;;0.00;0.00;;;15.90;51.40;;;;;;5075670;28;20115;-76
2021/10/07 05:49:32;;;;;;;1.13;0.10;;;15.90;52.20;;;;;;5075803;28;20115;-77
2021/10/07 05:51:58;;;;;;;2.08;0.22;;;15.90;52.40;;;;;;5075454;28;20036;-80
2021/10/07 05:54:24;;;;;;;1.50;0.15;;;16.00;52.00;;;;;;5075473;28;20024;-78
2021/10/07 05:56:49;;;;;;;0.22;0.03;;;16.00;51.00;;;;;;5075489;28;20055;-78
2021/10/07 05:59:15;;;;;;;0.90;0.03;;;15.90;51.40;;;;;;5075401;28;20025;-78
2021/10/07 06:01:41;;;;;;;0.25;0.00;;;16.00;51.70;;;;;;5075250;28;20477;-78
2021/10/07 06:04:07;;;;;;;0.10;0.08;;;16.00;51.50;;;;;;5075364;28;20029;-78
2021/10/07 06:06:33;;;;;;;0.50;0.10;;;15.90;51.80;;;;;;5075845;28;20031;-78
2021/10/07 06:08:59;;;;;;;2.40;0.13;;;15.90;52.20;;;;;;5075456;28;20041;-78
2021/10/07 06:11:25;;;;;;;2.55;0.10;;;15.90;52.60;;;;;;5075186;28;20032;-77
2021/10/07 06:13:50;;;;;;;0.10;0.00;;;16.00;51.50;;;;;;5075316;28;20020;-77
2021/10/07 06:16:17;;;;;;;1.10;0.10;;;15.90;52.00;;;;;;5074254;28;20009;-76
2021/10/07 06:18:44;;;;;;;0.20;0.10;;;16.00;52.00;;;;;;5073732;28;20012;-79
2021/10/07 06:21:09;;;;;;;1.23;0.03;;;16.00;51.80;;;;;;5074523;28;20461;-79
2021/10/07 06:23:36;;;;;;;0.00;0.00;;;16.00;51.80;;;;;;5074860;28;20032;-74
2021/10/07 06:26:02;;;;;;;1.85;0.03;;;16.00;52.10;;;;;;5074859;28;20029;-77
2021/10/07 06:28:28;;;;;;;2.58;0.10;;;15.90;51.80;;;;;;5074837;28;20033;-76
2021/10/07 06:30:54;;;;;;;0.10;0.00;;;15.90;52.20;;;;;;5073989;28;20044;-77
2021/10/07 06:33:19;;;;;;;0.55;0.00;;;15.90;51.70;;;;;;5074480;28;20025;-78
2021/10/07 06:35:45;;;;;;;0.45;0.10;;;16.00;51.60;;;;;;5074707;28;20492;-77
2021/10/07 06:38:11;;;;;;;3.22;0.10;;;15.90;51.30;;;;;;5074424;28;20481;-76
2021/10/07 06:40:37;;;;;;;0.00;0.00;;;16.00;51.20;;;;;;5074545;28;20513;-78
2021/10/07 06:43:03;;;;;;;0.38;0.10;;;16.00;51.60;;;;;;5074181;28;20556;-78
2021/10/07 06:45:29;;;;;;;0.20;0.10;;;16.00;51.70;;;;;;5073585;28;20032;-71
2021/10/07 06:47:55;;;;;;;0.10;0.00;;;16.00;50.20;;;;;;5074175;28;20130;-75
2021/10/07 06:50:21;;;;;;;0.30;0.10;;;16.00;50.90;;;;;;5074026;28;20472;-75
2021/10/07 06:52:47;;;;;;;0.43;0.00;;;16.00;50.30;;;;;;5073976;28;20078;-75
2021/10/07 06:55:13;;;;;;;1.92;0.00;;;16.10;51.10;;;;;;5074409;28;20021;-76
2021/10/07 06:57:40;;;;;;;0.10;0.00;;;16.10;51.00;;;;;;5074709;28;20467;-76
2021/10/07 07:00:08;;;;;;;0.75;0.10;;;16.10;51.60;;;;;;5074601;28;20643;-76
2021/10/07 07:02:35;;;;;;;0.30;0.10;;;16.10;52.00;;;;;;5074647;28;20024;-74
2021/10/07 07:05:04;;;;;;;0.40;0.10;;;16.10;51.40;;;;;;5074409;28;20120;-74
2021/10/07 07:07:30;;;;;;;0.08;0.05;;;16.10;52.50;;;;;;5074424;28;20029;-74
2021/10/07 07:09:55;;;;;;;2.50;0.10;;;16.10;52.20;;;;;;5072244;28;20031;-74
2021/10/07 07:12:21;;;;;;;2.38;0.20;;;16.10;52.50;;;;;;5072220;28;20400;-75
2021/10/07 07:14:47;;;;;;;0.30;0.10;;;16.10;52.80;;;;;;5073530;28;20376;-75
2021/10/07 07:17:13;;;;;;;1.75;0.00;;;16.10;52.30;;;;;;5072160;28;20077;-74
2021/10/07 07:19:39;;;;;;;0.95;0.28;;;16.10;51.70;;;;;;5073931;28;20027;-74
2021/10/07 07:22:04;;;;;;;0.98;0.10;;;16.10;51.90;;;;;;5073762;28;20484;-74
2021/10/07 07:24:30;;;;;;;0.20;0.10;;;16.10;52.60;;;;;;5073656;28;20039;-74
2021/10/07 07:26:56;;;;;;;0.28;0.10;;;16.10;52.10;;;;;;5071773;28;20025;-75
2021/10/07 07:29:21;;;;;;;0.10;0.00;;;16.20;51.10;;;;;;5071550;28;20025;-74
2021/10/07 07:31:47;;;;;;;0.75;0.10;;;16.20;50.90;;;;;;5070372;28;20040;-74
2021/10/07 07:34:13;;;;;;;0.13;0.00;;;16.20;50.50;;;;;;5072875;28;20074;-74
2021/10/07 07:36:38;;;;;;;0.10;0.00;;;16.20;51.10;;;;;;5073375;28;20024;-73
2021/10/07 07:39:04;;;;;;;0.38;0.05;;;16.30;51.60;;;;;;5073301;28;20032;-73
2021/10/07 07:41:30;;;;;;;0.98;0.10;;;16.30;51.80;;;;;;5071850;28;20384;-74
2021/10/07 07:43:56;;;;;;;1.35;0.17;;;16.30;52.70;;;;;;5073397;28;20113;-74
2021/10/07 07:46:22;;;;;;;1.55;0.17;;;16.30;52.40;;;;;;5073827;28;20055;-74
2021/10/07 07:48:48;;;;;;;0.15;0.10;;;16.30;53.10;;;;;;5074003;28;20033;-74
2021/10/07 07:51:14;;;;;;;0.00;0.00;;;16.20;52.90;;;;;;5073610;28;20025;-73
2021/10/07 07:53:39;;;;;;;1.55;0.20;;;16.30;53.30;;;;;;5073630;28;20039;-73
2021/10/07 07:56:05;;;;;;;0.30;0.10;;;16.20;53.30;;;;;;5073298;28;20429;-73
2021/10/07 07:58:31;;;;;;;0.65;0.10;;;16.30;53.70;;;;;;5073362;28;20464;-73
2021/10/07 08:00:56;;;;;;;0.30;0.10;;;16.30;52.80;;;;;;5072160;28;20361;-74
2021/10/07 08:03:24;;;;;;;0.55;0.10;;;16.30;51.70;;;;;;5073605;28;20032;-74
2021/10/07 08:05:50;;;;;;;0.25;0.00;;;16.40;51.20;;;;;;5073735;28;20472;-73
2021/10/07 08:08:15;;;;;;;1.00;0.10;;;16.40;51.80;;;;;;5073414;28;20064;-73
2021/10/07 08:10:41;;;;;;;2.13;0.10;;;16.40;50.60;;;;;;5073183;28;20020;-74
2021/10/07 08:13:07;;;;;;;2.22;0.10;;;16.40;51.40;;;;;;5073458;28;20117;-74
2021/10/07 08:15:32;;;;;;;0.45;0.00;;;16.40;52.20;;;;;;5073225;28;20020;-74
2021/10/07 08:17:58;;;;;;;0.30;0.10;;;16.40;52.30;;;;;;5072220;28;20484;-73
2021/10/07 08:20:24;;;;;;;0.03;0.00;;;16.40;50.90;;;;;;5073303;28;20070;-74
2021/10/07 08:22:50;;;;;;;0.00;0.00;;;16.40;51.60;;;;;;5073075;28;20021;-73
2021/10/07 08:25:18;;;;;;;0.10;0.00;;;16.40;48.70;;;;;;5073183;28;20020;-73
2021/10/07 08:27:45;;;;;;;0.20;0.10;;;16.50;49.80;;;;;;5073105;28;20028;-73
2021/10/07 08:30:12;;;;;;;1.08;0.10;;;16.50;50.80;;;;;;5072986;28;20056;-73
2021/10/07 08:32:39;;;;;;;1.60;0.10;;;16.40;51.50;;;;;;5073297;28;20020;-73
2021/10/07 08:35:07;;;;;;;0.15;0.00;;;16.50;51.40;;;;;;5073287;28;20441;-73
2021/10/07 08:37:33;;;;;;;0.20;0.10;;;16.40;50.60;;;;;;5072992;28;20033;-74
2021/10/07 08:40:00;;;;;;;0.22;0.10;;;16.40;50.90;;;;;;5072857;28;20025;-74
2021/10/07 08:42:27;;;;;;;0.63;0.05;;;16.40;50.10;;;;;;5072989;28;20055;-73
2021/10/07 08:44:53;;;;;;;0.32;0.00;;;16.40;51.00;;;;;;5073160;28;20062;-73
2021/10/07 08:47:19;;;;;;;0.40;0.10;;;16.40;51.30;;;;;;5072706;28;20024;-74
2021/10/07 08:49:50;;;;;;;0.10;0.10;;;16.50;52.20;;;;;;5072846;28;20066;-73
2021/10/07 08:52:16;;;;;;;1.77;0.10;;;16.50;49.00;;;;;;5073021;28;20059;-74
2021/10/07 08:54:42;;;;;;;0.00;0.00;;;16.60;49.70;;;;;;5073191;28;20415;-73
2021/10/07 08:57:08;;;;;;;0.08;0.00;;;16.60;49.80;;;;;;5072751;28;20146;-73
2021/10/07 08:59:35;;;;;;;0.00;0.00;;;16.60;50.20;;;;;;5072677;28;20051;-74
2021/10/07 09:02:04;;;;;;;0.20;0.10;;;16.60;50.70;;;;;;5072842;28;20456;-73
2021/10/07 09:04:35;;;;;;;0.10;0.10;;;16.60;50.50;;;;;;5072620;28;20020;-73
2021/10/07 09:07:10;;;;;;;0.55;0.10;;;16.60;51.10;;;;;;5071330;28;20069;-73
2021/10/07 09:09:40;;;;;;;5.63;1.40;;;16.60;50.50;;;;;;5075713;28;20032;-73
2021/10/07 09:12:17;;;;;;;0.63;0.10;;;16.60;50.80;;;;;;5076856;28;20082;-73
2021/10/07 09:14:45;;;;;;;5.75;0.10;;;16.60;49.60;;;;;;5076249;28;20384;-73
2021/10/07 09:17:13;;;;;;;0.20;0.00;;;16.50;50.50;;;;;;5076480;28;20036;-73
2021/10/07 09:19:46;;;;;;;1.27;0.10;;;16.50;51.10;;;;;;5076373;28;20035;-73
2021/10/07 09:22:24;;;;;;;0.30;0.10;;;16.50;51.40;;;;;;5076562;28;20016;-73
2021/10/07 09:24:56;;;;;;;0.63;0.10;;;16.50;51.40;;;;;;5076204;28;20025;-74
2021/10/07 09:27:26;;;;;;;4.50;0.10;;;16.50;52.00;;;;;;5076042;28;20024;-75
2021/10/07 09:30:04;;;;;;;0.30;0.10;;;16.50;53.40;;;;;;5074737;28;20040;-73
2021/10/07 09:32:32;;;;;;;1.65;0.00;;;16.40;54.30;;;;;;5075248;28;20472;-74
2021/10/07 09:35:01;;;;;;;1.80;0.15;;;16.40;54.70;;;;;;5075591;28;20190;-76
2021/10/07 09:37:32;;;;;;;0.17;0.10;;;16.50;53.30;;;;;;5075641;28;20028;-76
2021/10/07 09:40:27;;;;;;;0.10;0.10;;;16.40;53.40;;;;;;5075671;28;20037;-80
2021/10/07 09:42:59;;;;;;;0.40;0.10;;;16.40;53.30;;;;;;5071904;28;20063;-79
2021/10/07 09:45:34;;;;;;;0.73;0.03;;;16.40;53.30;;;;;;5077241;28;20039;-81
2021/10/07 09:48:06;;;;;;;2.90;0.10;;;16.40;52.40;;;;;;5075604;28;20301;-80
2021/10/07 09:50:34;;;;;;;0.20;0.10;;;16.40;53.00;;;;;;5075763;28;20090;-80
2021/10/07 09:53:12;;;;;;;0.57;0.10;;;16.40;53.00;;;;;;5075818;28;20029;-80
2021/10/07 09:55:42;;;;;;;1.88;0.15;;;16.40;52.70;;;;;;5075794;28;20017;-82
2021/10/07 09:58:18;;;;;;;0.40;0.00;;;16.40;52.60;;;;;;5075595;28;20024;-84
2021/10/07 10:00:46;;;;;;;0.00;0.00;;;16.40;52.50;;;;;;5074929;28;20031;-85
2021/10/07 10:03:14;;;;;;;0.30;0.10;;;16.40;51.60;;;;;;5075241;28;20021;-77
2021/10/07 10:05:41;;;;;;;0.30;0.10;;;16.40;51.80;;;;;;5075129;28;20021;-77
2021/10/07 10:08:10;;;;;;;5.95;0.13;;;16.40;53.00;;;;;;5075629;28;20473;-77
2021/10/07 10:10:37;;;;;;;0.15;0.00;;;16.40;52.30;;;;;;5075192;28;20130;-77
2021/10/07 10:13:04;;;;;;;0.00;0.00;;;16.40;52.20;;;;;;5075565;28;20024;-78
2021/10/07 10:15:31;;;;;;;1.13;0.10;;;16.50;51.90;;;;;;5075465;28;20376;-77
2021/10/07 10:17:57;;;;;;;0.00;0.00;;;16.40;52.50;;;;;;5075343;28;20028;-77
2021/10/07 10:20:26;;;;;;;0.65;0.08;;;16.50;52.90;;;;;;5074468;28;20025;-77
2021/10/07 10:22:57;;;;;;;0.68;0.05;;;16.50;52.50;;;;;;5075390;28;20041;-77
2021/10/07 10:25:24;;;;;;;0.80;0.15;;;16.50;53.60;;;;;;5075174;28;20033;-78
2021/10/07 10:28:04;;;;;;;1.27;0.10;;;16.50;51.90;;;;;;5075300;28;20040;-79
2021/10/07 10:30:44;;;;;;;0.05;0.05;;;16.60;52.00;;;;;;5075010;28;20040;-78
2021/10/07 10:33:30;;;;;;;0.00;0.00;;;16.60;51.80;;;;;;5075383;28;20052;-79
2021/10/07 10:35:56;;;;;;;2.13;0.00;;;16.60;52.30;;;;;;5075097;28;20023;-79
2021/10/07 10:38:22;;;;;;;0.20;0.10;;;16.60;53.00;;;;;;5075005;28;20434;-79
2021/10/07 10:40:48;;;;;;;0.30;0.10;;;16.60;52.70;;;;;;5074845;28;20021;-76
2021/10/07 10:43:16;;;;;;;0.17;0.00;;;16.60;53.60;;;;;;5075216;28;20051;-77
2021/10/07 10:45:51;;;;;;;0.10;0.00;;;16.60;52.30;;;;;;5074662;28;20052;-78
2021/10/07 10:48:44;;;;;;;1.73;0.00;;;16.70;52.20;;;;;;5074637;28;20041;-78
2021/10/07 10:51:14;;;;;;;;;;;16.70;51.70;;;;;;5075082;28;20027;-77
2021/10/07 10:54:04;;;;;;;1.27;0.10;;;16.70;52.00;;;;;;5073523;28;20377;-75
2021/10/07 10:56:32;;;;;;;0.32;0.10;;;16.70;52.30;;;;;;5074212;28;20035;-78
2021/10/07 10:59:16;;;;;;;0.10;0.00;;;16.70;52.40;;;;;;5074366;28;20518;-77
2021/10/07 11:01:41;;;;;;;3.50;0.10;;;16.70;51.80;;;;;;5074187;28;20107;-79
2021/10/07 11:04:08;;;;;;;1.77;0.10;;;16.70;51.90;;;;;;5074460;28;20496;-77
2021/10/07 11:07:20;;;;;;;0.10;0.00;;;16.80;51.80;;;;;;5074114;28;20024;-76
2021/10/07 11:09:58;;;;;;;0.68;0.10;;;16.80;52.40;;;;;;5072119;28;20044;-76
2021/10/07 11:12:24;;;;;;;2.05;0.00;;;16.80;52.10;;;;;;5074607;28;20134;-77
2021/10/07 11:14:50;;;;;;;0.45;0.10;;;16.80;53.10;;;;;;5074504;28;20025;-76
2021/10/07 11:17:18;;;;;;;0.10;0.00;;;16.90;53.50;;;;;;5074053;28;20025;-76
2021/10/07 11:19:46;;;;;;;0.45;0.13;;;16.90;52.60;;;;;;5071727;28;20017;-76
2021/10/07 11:22:12;;;;;;;0.50;0.10;;;16.90;51.90;;;;;;5071219;28;20051;-76
2021/10/07 11:24:52;;;;;;;1.85;0.10;;;16.90;50.60;;;;;;5071124;28;20056;-76
2021/10/07 11:27:39;;;;;;;1.75;0.08;;;16.90;51.00;;;;;;5073531;28;20021;-76
2021/10/07 11:30:09;;;;;;;0.10;0.03;;;17.00;50.80;;;;;;5073667;28;20057;-76
2021/10/07 11:32:35;;;;;;;1.33;0.10;;;17.00;51.50;;;;;;5073304;28;20021;-76
2021/10/07 11:35:07;;;;;;;0.20;0.10;;;16.90;50.90;;;;;;5073394;28;20036;-76
2021/10/07 11:37:55;;;;;;;0.40;0.10;;;16.90;51.00;;;;;;5073671;28;20032;-75
2021/10/07 11:40:28;;;;;;;3.75;0.20;;;17.00;52.30;;;;;;5073073;28;20461;-75
2021/10/07 11:42:56;;;;;;;2.05;0.20;;;17.00;50.50;;;;;;5073260;28;20048;-76
2021/10/07 11:45:23;;;;;;;1.38;0.10;;;17.00;50.70;;;;;;5073174;28;20024;-76
2021/10/07 11:47:50;;;;;;;0.70;0.00;;;17.00;50.50;;;;;;5073024;28;20028;-76
2021/10/07 11:50:18;;;;;;;0.10;0.00;;;16.90;50.60;;;;;;5072913;28;20021;-76
2021/10/07 11:52:44;;;;;;;0.10;0.00;;;17.00;49.80;;;;;;5072965;28;20074;-75
2021/10/07 11:55:12;;;;;;;0.00;0.00;;;17.00;50.50;;;;;;5073812;28;20021;-75
2021/10/07 11:57:50;;;;;;;0.05;0.00;;;17.00;49.70;;;;;;5073191;28;20503;-75
2021/10/07 12:00:32;;;;;;;0.00;0.00;;;17.00;50.00;;;;;;5073095;28;20496;-75
2021/10/07 12:03:13;;;;;;;0.20;0.10;;;17.00;50.40;;;;;;5073194;28;20044;-75
2021/10/07 12:05:41;;;;;;;0.15;0.00;;;17.00;50.10;;;;;;5073023;28;20032;-75
2021/10/07 12:08:11;;;;;;;0.13;0.03;;;17.00;50.70;;;;;;5072881;28;20551;-76
2021/10/07 12:10:44;;;;;;;0.10;0.00;;;17.00;50.50;;;;;;5072491;28;20032;-76
2021/10/07 12:13:11;;;;;;;0.00;0.00;;;17.00;50.80;;;;;;5072758;28;20016;-75
2021/10/07 12:15:39;;;;;;;0.20;0.00;;;17.00;50.10;;;;;;5072425;28;20060;-76
2021/10/07 12:18:06;;;;;;;0.45;0.17;;;17.10;49.50;;;;;;5072656;28;20112;-75
2021/10/07 12:20:32;;;;;;;1.35;0.10;;;17.10;49.80;;;;;;5072181;28;20033;-75
2021/10/07 12:23:05;;;;;;;1.25;0.10;;;17.10;48.10;;;;;;5072607;28;20048;-75
2021/10/07 12:25:44;;;;;;;0.32;0.03;;;17.10;49.20;;;;;;5070013;28;20033;-75
2021/10/07 12:28:17;;;;;;;0.20;0.00;;;17.10;49.30;;;;;;5069245;28;20508;-76
2021/10/07 12:31:08;;;;;;;0.32;0.10;;;17.20;49.60;;;;;;5072278;28;20130;-76
2021/10/07 12:33:34;;;;;;;0.35;0.08;;;17.20;50.30;;;;;;5071909;28;20206;-76
2021/10/07 12:36:05;;;;;;;2.00;0.20;;;17.20;50.10;;;;;;5072863;28;20021;-75
2021/10/07 12:38:52;;;;;;;0.35;0.20;;;17.20;49.00;;;;;;5072975;28;20384;-76
2021/10/07 12:41:30;;;;;;;1.90;0.10;;;17.30;49.00;;;;;;5071559;28;20049;-75
2021/10/07 12:43:57;;;;;;;2.30;0.20;;;17.30;49.00;;;;;;5072590;28;20036;-76
2021/10/07 12:46:24;;;;;;;0.28;0.08;;;17.30;49.10;;;;;;5073076;28;20093;-76
2021/10/07 12:48:51;;;;;;;2.90;0.00;;;17.30;49.40;;;;;;5072596;28;20032;-75
2021/10/07 12:51:18;;;;;;;0.22;0.00;;;17.30;48.80;;;;;;5072417;28;20446;-76
2021/10/07 12:53:45;;;;;;;2.08;0.10;;;17.30;50.10;;;;;;5072682;28;20033;-75
2021/10/07 12:56:15;;;;;;;0.28;0.08;;;17.30;51.20;;;;;;5072466;28;20017;-76